Time;durP1;ratioP1;P1;durP2;ratioP2;P2;SDS_P1;SDS_P2;PMS_P1;PMS_P2;Temp;Humidity;BMP_temperature;BMP_pressure;BME280_temperature;BME280_humidity;BME280_pressure;Samples;Min_cycle;Max_cycle;Signal;HPM_P1;HPM_P2
2023/06/13 00:00:49;;;;;;;0.57;0.30;;;18.40;56.10;;;;;;4988091;28;20129;-79
2023/06/13 00:03:15;;;;;;;0.40;0.30;;;18.40;56.00;;;;;;5007475;28;20045;-78
2023/06/13 00:05:45;;;;;;;0.17;0.10;;;18.40;55.80;;;;;;5008159;28;20383;-78
2023/06/13 00:08:17;;;;;;;0.00;0.00;;;18.30;56.40;;;;;;5010309;28;20045;-78
2023/06/13 00:10:47;;;;;;;1.58;0.65;;;18.30;56.20;;;;;;5010689;28;20498;-78
2023/06/13 00:13:17;;;;;;;4.47;0.32;;;18.30;56.40;;;;;;5010123;28;20044;-78
2023/06/13 00:15:52;;;;;;;0.32;0.32;;;18.20;56.30;;;;;;5005742;28;20041;-77
2023/06/13 00:18:19;;;;;;;0.25;0.13;;;18.20;56.50;;;;;;5008935;28;20117;-76
2023/06/13 00:20:46;;;;;;;0.52;0.45;;;18.10;56.40;;;;;;5008788;28;20088;-78
2023/06/13 00:23:12;;;;;;;0.25;0.13;;;18.10;56.50;;;;;;5008350;28;20042;-77
2023/06/13 00:25:38;;;;;;;0.38;0.38;;;18.10;56.70;;;;;;5009800;28;20064;-77
2023/06/13 00:28:04;;;;;;;0.35;0.25;;;18.10;56.80;;;;;;5010176;28;20095;-77
2023/06/13 00:30:30;;;;;;;0.10;0.10;;;18.00;57.00;;;;;;5005631;28;20522;-77
2023/06/13 00:32:56;;;;;;;0.22;0.20;;;18.00;57.40;;;;;;5008657;28;20046;-77
2023/06/13 00:35:22;;;;;;;1.05;0.70;;;17.90;57.30;;;;;;5024406;28;20104;-77
2023/06/13 00:37:54;;;;;;;0.22;0.17;;;17.90;57.60;;;;;;5006906;28;20069;-77
2023/06/13 00:40:20;;;;;;;0.38;0.32;;;17.80;57.70;;;;;;5008325;28;20046;-77
2023/06/13 00:42:46;;;;;;;0.25;0.10;;;17.80;58.10;;;;;;5008140;28;20057;-78
2023/06/13 00:45:32;;;;;;;0.08;0.00;;;17.80;57.80;;;;;;5009989;28;20042;-77
2023/06/13 00:48:01;;;;;;;0.08;0.08;;;17.70;58.40;;;;;;5008254;28;20048;-78
2023/06/13 00:50:33;;;;;;;0.20;0.20;;;17.60;58.60;;;;;;5003669;28;20044;-77
2023/06/13 00:53:02;;;;;;;0.85;0.32;;;17.60;58.70;;;;;;5003195;28;20051;-77
2023/06/13 00:55:28;;;;;;;0.60;0.28;;;17.60;58.90;;;;;;5008674;28;20045;-77
2023/06/13 00:57:55;;;;;;;0.15;0.10;;;17.60;59.10;;;;;;5013184;28;20064;-77
2023/06/13 01:00:26;;;;;;;0.20;0.20;;;17.50;59.30;;;;;;5009042;28;20037;-77
2023/06/13 01:02:55;;;;;;;3.00;1.02;;;17.50;59.20;;;;;;5013276;28;20087;-77
2023/06/13 01:05:25;;;;;;;0.73;0.20;;;17.40;59.90;;;;;;5007969;28;20052;-77
2023/06/13 01:07:52;;;;;;;3.72;0.38;;;17.40;59.80;;;;;;4994768;28;20085;-77
2023/06/13 01:10:18;;;;;;;0.17;0.17;;;17.30;59.90;;;;;;5011972;28;20383;-77
2023/06/13 01:12:53;;;;;;;0.20;0.10;;;17.30;60.30;;;;;;5011111;28;20080;-76
2023/06/13 01:15:22;;;;;;;0.00;0.00;;;17.30;61.10;;;;;;5009904;28;20033;-76
2023/06/13 01:17:57;;;;;;;0.30;0.17;;;17.30;60.30;;;;;;5009659;28;20076;-77
2023/06/13 01:20:27;;;;;;;1.48;0.52;;;17.30;60.70;;;;;;5009271;28;20128;-76
2023/06/13 01:23:16;;;;;;;0.32;0.32;;;17.20;60.70;;;;;;5011893;28;20030;-77
2023/06/13 01:26:20;;;;;;;0.50;0.40;;;17.20;61.20;;;;;;4994125;28;20107;-77
2023/06/13 01:28:51;;;;;;;0.20;0.15;;;17.10;60.60;;;;;;5009771;28;20041;-77
2023/06/13 01:31:19;;;;;;;1.17;0.30;;;17.10;60.60;;;;;;5009219;28;20046;-77
2023/06/13 01:33:46;;;;;;;0.10;0.00;;;17.10;61.60;;;;;;5011098;28;20103;-77
2023/06/13 01:36:12;;;;;;;0.25;0.22;;;17.00;61.80;;;;;;5010564;28;20041;-76
2023/06/13 01:38:39;;;;;;;1.00;0.20;;;16.90;61.50;;;;;;5013307;28;20037;-76
2023/06/13 01:41:05;;;;;;;0.32;0.30;;;16.90;62.10;;;;;;5008464;28;20041;-76
2023/06/13 01:43:30;;;;;;;0.63;0.10;;;16.90;62.20;;;;;;5007002;28;20042;-76
2023/06/13 01:46:20;;;;;;;0.25;0.20;;;16.80;62.10;;;;;;5006001;28;20377;-76
2023/06/13 01:48:55;;;;;;;0.70;0.40;;;16.80;62.30;;;;;;5007665;28;20037;-76
2023/06/13 01:51:39;;;;;;;0.10;0.10;;;16.80;62.50;;;;;;4994801;28;20050;-76
2023/06/13 01:54:11;;;;;;;0.00;0.00;;;16.80;62.70;;;;;;5010575;28;20061;-76
2023/06/13 01:56:40;;;;;;;0.45;0.32;;;16.80;62.90;;;;;;5005867;28;20042;-76
2023/06/13 01:59:11;;;;;;;0.00;0.00;;;16.70;63.10;;;;;;5011583;28;20044;-76
2023/06/13 02:01:40;;;;;;;0.17;0.17;;;16.70;63.30;;;;;;5011840;28;20060;-76
2023/06/13 02:04:06;;;;;;;0.10;0.10;;;16.70;63.20;;;;;;5010178;28;20050;-76
2023/06/13 02:06:35;;;;;;;0.98;0.13;;;16.60;63.30;;;;;;5006538;28;20041;-76
2023/06/13 02:09:01;;;;;;;0.38;0.32;;;16.60;63.90;;;;;;5008700;28;20049;-76
2023/06/13 02:11:27;;;;;;;0.28;0.28;;;16.50;63.40;;;;;;5009608;28;20048;-76
2023/06/13 02:13:53;;;;;;;1.45;0.57;;;16.50;63.80;;;;;;5028243;28;20200;-76
2023/06/13 02:16:25;;;;;;;0.80;0.43;;;16.50;63.90;;;;;;5008513;28;20425;-76
2023/06/13 02:18:53;;;;;;;1.38;0.35;;;16.40;63.50;;;;;;5007839;28;20042;-76
2023/06/13 02:21:19;;;;;;;0.00;0.00;;;16.40;64.70;;;;;;5011278;28;20033;-76
2023/06/13 02:23:44;;;;;;;0.25;0.15;;;16.40;64.20;;;;;;4996144;28;20179;-76
2023/06/13 02:26:10;;;;;;;0.47;0.30;;;16.30;64.90;;;;;;5010253;28;20136;-76
2023/06/13 02:28:36;;;;;;;0.00;0.00;;;16.30;65.50;;;;;;5009819;28;20033;-76
2023/06/13 02:31:01;;;;;;;0.08;0.08;;;16.20;65.50;;;;;;5008185;28;20048;-76
2023/06/13 02:33:30;;;;;;;4.30;1.02;;;16.20;66.10;;;;;;5008094;28;20130;-76
2023/06/13 02:35:56;;;;;;;1.63;0.35;;;16.20;66.70;;;;;;5010619;28;20041;-76
2023/06/13 02:38:21;;;;;;;0.10;0.10;;;16.10;67.10;;;;;;5009714;28;20041;-76
2023/06/13 02:40:47;;;;;;;0.40;0.13;;;16.10;68.00;;;;;;4996996;28;20033;-76
2023/06/13 02:43:13;;;;;;;0.65;0.25;;;16.10;67.80;;;;;;5005892;28;20034;-76
2023/06/13 02:45:39;;;;;;;3.03;0.35;;;16.00;69.00;;;;;;5009869;28;20492;-76
2023/06/13 02:48:04;;;;;;;0.43;0.20;;;16.00;69.40;;;;;;5010435;28;20037;-76
2023/06/13 02:50:30;;;;;;;0.00;0.00;;;15.90;71.40;;;;;;5009255;28;20054;-76
2023/06/13 02:52:56;;;;;;;0.22;0.20;;;15.90;71.10;;;;;;5010725;28;20056;-76
2023/06/13 02:55:22;;;;;;;0.28;0.20;;;15.80;72.70;;;;;;5008709;28;20048;-76
2023/06/13 02:57:48;;;;;;;0.00;0.00;;;15.80;74.00;;;;;;5007924;28;20094;-76
2023/06/13 03:00:17;;;;;;;0.20;0.20;;;15.80;75.20;;;;;;4990580;28;20037;-76
2023/06/13 03:02:43;;;;;;;0.00;0.00;;;15.70;76.80;;;;;;5008046;28;20034;-76
2023/06/13 03:05:11;;;;;;;0.00;0.00;;;15.70;76.50;;;;;;5010201;28;20567;-76
2023/06/13 03:07:42;;;;;;;1.25;0.10;;;15.60;78.50;;;;;;5005605;28;20041;-76
2023/06/13 03:10:09;;;;;;;0.00;0.00;;;15.60;80.10;;;;;;5010640;28;20119;-76
2023/06/13 03:12:35;;;;;;;0.25;0.15;;;15.60;80.10;;;;;;5010618;28;20041;-76
2023/06/13 03:15:01;;;;;;;0.52;0.15;;;15.60;81.30;;;;;;5007689;28;20263;-76
2023/06/13 03:17:27;;;;;;;0.10;0.10;;;15.50;82.50;;;;;;5005033;28;20128;-76
2023/06/13 03:19:53;;;;;;;0.00;0.00;;;15.50;83.50;;;;;;5007642;28;20437;-76
2023/06/13 03:22:19;;;;;;;0.20;0.10;;;15.60;83.30;;;;;;4990910;28;20029;-76
2023/06/13 03:24:45;;;;;;;0.22;0.03;;;15.50;81.20;;;;;;4992609;28;20155;-76
2023/06/13 03:27:12;;;;;;;0.00;0.00;;;15.50;86.50;;;;;;4993435;28;20065;-76
2023/06/13 03:29:41;;;;;;;0.70;0.20;;;15.50;84.80;;;;;;5008837;28;20076;-76
2023/06/13 03:32:11;;;;;;;0.10;0.10;;;15.50;87.60;;;;;;5004847;28;20425;-77
2023/06/13 03:34:39;;;;;;;0.40;0.35;;;15.50;88.70;;;;;;5000106;28;20041;-76
2023/06/13 03:37:08;;;;;;;0.75;0.43;;;15.50;90.60;;;;;;5008088;28;20041;-76
2023/06/13 03:39:34;;;;;;;0.28;0.28;;;15.50;90.60;;;;;;5007008;28;20072;-76
2023/06/13 03:42:01;;;;;;;0.20;0.20;;;15.50;90.50;;;;;;5012704;28;20052;-76
2023/06/13 03:44:27;;;;;;;1.80;0.30;;;15.50;91.70;;;;;;5014092;28;20037;-76
2023/06/13 03:46:55;;;;;;;22.08;1.13;;;15.40;92.10;;;;;;5012167;28;20049;-76
2023/06/13 03:49:24;;;;;;;0.73;0.40;;;15.40;93.00;;;;;;5011583;28;20529;-76
2023/06/13 03:51:50;;;;;;;0.40;0.32;;;15.40;92.90;;;;;;5011914;28;20100;-76
2023/06/13 03:54:16;;;;;;;2.80;0.68;;;15.40;93.80;;;;;;5013606;28;20056;-76
2023/06/13 03:56:42;;;;;;;1.95;0.85;;;15.50;94.60;;;;;;5013846;28;20033;-76
2023/06/13 03:59:08;;;;;;;0.10;0.10;;;15.50;94.90;;;;;;5013008;28;20044;-76
2023/06/13 04:01:34;;;;;;;0.70;0.65;;;15.50;94.60;;;;;;5012073;28;20046;-76
2023/06/13 04:03:59;;;;;;;0.63;0.30;;;15.50;95.10;;;;;;5011403;28;20041;-77
2023/06/13 04:06:28;;;;;;;0.43;0.25;;;15.50;95.10;;;;;;5013040;28;20052;-77
2023/06/13 04:08:54;;;;;;;0.40;0.25;;;15.50;95.10;;;;;;5014493;28;20041;-76
2023/06/13 04:11:20;;;;;;;0.00;0.00;;;15.50;94.70;;;;;;5026240;28;20045;-77
2023/06/13 04:13:46;;;;;;;0.10;0.10;;;15.50;95.30;;;;;;5013571;28;20038;-77
2023/06/13 04:16:12;;;;;;;0.10;0.10;;;15.50;95.70;;;;;;5013256;28;20037;-77
2023/06/13 04:18:39;;;;;;;0.05;0.00;;;15.60;95.20;;;;;;5010769;28;20042;-77
2023/06/13 04:21:06;;;;;;;0.20;0.10;;;15.60;96.00;;;;;;5009001;28;20050;-77
2023/06/13 04:23:32;;;;;;;0.08;0.08;;;15.60;95.80;;;;;;5013133;28;20354;-77
2023/06/13 04:26:02;;;;;;;0.00;0.00;;;15.60;96.10;;;;;;5011442;28;20339;-77
2023/06/13 04:28:32;;;;;;;0.60;0.40;;;15.70;95.80;;;;;;5010580;28;20052;-77
2023/06/13 04:31:00;;;;;;;0.52;0.52;;;15.70;95.90;;;;;;4997951;28;20519;-78
2023/06/13 04:33:26;;;;;;;1.17;0.57;;;15.70;96.10;;;;;;5012152;28;20037;-77
2023/06/13 04:35:54;;;;;;;0.00;0.00;;;15.80;95.60;;;;;;5015277;28;20049;-77
2023/06/13 04:38:21;;;;;;;0.08;0.08;;;15.90;95.70;;;;;;5011436;28;20084;-78
2023/06/13 04:40:47;;;;;;;0.00;0.00;;;15.90;96.00;;;;;;4998550;28;20045;-78
2023/06/13 04:43:17;;;;;;;0.32;0.30;;;16.00;95.50;;;;;;4998294;28;20061;-78
2023/06/13 04:45:43;;;;;;;1.35;0.22;;;16.00;96.10;;;;;;5013880;28;20042;-78
2023/06/13 04:48:10;;;;;;;0.10;0.10;;;16.10;95.70;;;;;;5010146;28;20129;-78
2023/06/13 04:50:40;;;;;;;0.25;0.20;;;16.10;95.10;;;;;;5014213;28;20045;-79
2023/06/13 04:53:11;;;;;;;0.40;0.35;;;16.20;95.50;;;;;;5008339;28;20061;-78
2023/06/13 04:55:40;;;;;;;0.47;0.43;;;16.30;95.00;;;;;;5011989;28;20040;-79
2023/06/13 04:58:06;;;;;;;0.00;0.00;;;16.40;96.00;;;;;;5011167;28;20038;-79
2023/06/13 05:00:32;;;;;;;0.40;0.30;;;16.60;95.40;;;;;;5015074;28;20041;-79
2023/06/13 05:03:01;;;;;;;1.98;0.30;;;17.20;93.90;;;;;;4996634;28;20038;-78
2023/06/13 05:05:27;;;;;;;1.40;0.43;;;17.60;91.40;;;;;;5011148;28;20091;-79
2023/06/13 05:07:59;;;;;;;0.28;0.10;;;17.90;91.30;;;;;;5015248;28;20491;-80
2023/06/13 05:10:26;;;;;;;0.60;0.52;;;17.90;89.80;;;;;;5010008;28;20056;-80
2023/06/13 05:12:53;;;;;;;0.45;0.40;;;17.70;90.40;;;;;;4988468;28;20064;-80
2023/06/13 05:15:20;;;;;;;0.17;0.10;;;17.70;90.70;;;;;;5013975;28;20033;-80
2023/06/13 05:17:46;;;;;;;1.13;0.57;;;17.70;90.40;;;;;;5013807;28;20046;-76
2023/06/13 05:20:12;;;;;;;0.30;0.15;;;17.60;91.40;;;;;;4993835;28;20048;-75
2023/06/13 05:22:42;;;;;;;0.00;0.00;;;17.50;90.30;;;;;;5014583;28;20033;-75
2023/06/13 05:25:12;;;;;;;0.17;0.17;;;17.50;91.30;;;;;;5010981;28;20061;-76
2023/06/13 05:27:38;;;;;;;0.00;0.00;;;17.50;90.50;;;;;;5014139;28;20068;-76
2023/06/13 05:30:08;;;;;;;2.80;1.02;;;17.50;90.90;;;;;;4994533;28;20486;-75
2023/06/13 05:32:33;;;;;;;0.55;0.13;;;17.50;92.20;;;;;;5028180;28;20453;-74
2023/06/13 05:35:00;;;;;;;0.38;0.38;;;17.60;91.70;;;;;;5011345;28;20072;-75
2023/06/13 05:37:28;;;;;;;0.10;0.10;;;17.60;90.90;;;;;;5010339;28;20103;-76
2023/06/13 05:39:54;;;;;;;0.25;0.15;;;17.70;92.20;;;;;;4997337;28;20041;-74
2023/06/13 05:42:21;;;;;;;1.38;0.80;;;17.80;91.30;;;;;;5011580;28;20101;-75
2023/06/13 05:44:46;;;;;;;0.73;0.32;;;17.80;90.50;;;;;;5026748;28;20136;-75
2023/06/13 05:47:12;;;;;;;0.05;0.05;;;17.90;91.20;;;;;;5010493;28;20125;-75
2023/06/13 05:49:38;;;;;;;0.20;0.20;;;17.90;90.10;;;;;;5008795;28;20041;-75
2023/06/13 05:52:04;;;;;;;2.67;0.57;;;18.00;90.60;;;;;;4990773;28;20107;-76
2023/06/13 05:54:31;;;;;;;0.52;0.47;;;18.10;89.70;;;;;;5002164;28;20318;-76
2023/06/13 05:56:57;;;;;;;0.10;0.10;;;18.20;87.90;;;;;;5007769;28;20096;-75
2023/06/13 05:59:22;;;;;;;1.20;0.38;;;18.30;87.70;;;;;;4990470;28;20037;-76
2023/06/13 06:01:49;;;;;;;0.28;0.15;;;18.30;86.60;;;;;;4990060;28;20049;-75
2023/06/13 06:04:14;;;;;;;0.25;0.10;;;18.40;86.40;;;;;;5006072;28;20092;-76
2023/06/13 06:06:40;;;;;;;0.65;0.40;;;18.50;83.20;;;;;;5008939;28;20077;-75
2023/06/13 06:09:06;;;;;;;0.10;0.10;;;18.60;82.80;;;;;;5025905;28;20038;-74
2023/06/13 06:11:33;;;;;;;0.57;0.20;;;18.60;81.30;;;;;;4992759;28;20042;-76
2023/06/13 06:13:59;;;;;;;0.10;0.10;;;18.70;81.30;;;;;;5009843;28;20041;-75
2023/06/13 06:16:25;;;;;;;0.00;0.00;;;18.80;80.60;;;;;;5007678;28;20553;-75
2023/06/13 06:18:51;;;;;;;0.10;0.10;;;18.90;79.00;;;;;;5004837;28;20399;-72
2023/06/13 06:21:17;;;;;;;0.10;0.10;;;18.80;79.40;;;;;;5007457;28;20039;-72
2023/06/13 06:23:42;;;;;;;0.55;0.55;;;18.90;79.20;;;;;;5006910;28;20063;-73
2023/06/13 06:26:10;;;;;;;0.20;0.20;;;19.00;78.60;;;;;;5004582;28;20115;-72
2023/06/13 06:28:35;;;;;;;1.90;0.43;;;19.00;78.50;;;;;;5006661;28;20046;-71
2023/06/13 06:31:01;;;;;;;0.00;0.00;;;19.20;78.00;;;;;;5005172;28;20409;-72
2023/06/13 06:33:28;;;;;;;0.40;0.38;;;19.20;81.50;;;;;;5002868;28;20078;-72
2023/06/13 06:35:53;;;;;;;6.55;1.20;;;19.40;76.40;;;;;;5007721;28;20042;-71
2023/06/13 06:38:19;;;;;;;0.40;0.28;;;19.40;76.70;;;;;;5007810;28;20406;-72
2023/06/13 06:40:45;;;;;;;4.43;1.10;;;19.50;76.50;;;;;;5006640;28;20129;-72
2023/06/13 06:43:10;;;;;;;0.57;0.22;;;19.50;77.80;;;;;;5006309;28;20046;-72
2023/06/13 06:45:36;;;;;;;0.50;0.38;;;19.50;76.60;;;;;;5007622;28;20639;-72
2023/06/13 06:48:03;;;;;;;1.65;0.77;;;19.70;75.90;;;;;;5007602;28;20042;-72
2023/06/13 06:50:29;;;;;;;0.10;0.00;;;19.70;76.10;;;;;;4990763;28;20046;-73
2023/06/13 06:52:55;;;;;;;0.10;0.10;;;19.80;74.00;;;;;;5007450;28;20095;-72
2023/06/13 06:55:21;;;;;;;1.30;0.77;;;19.90;72.90;;;;;;5006666;28;20046;-73
2023/06/13 06:57:46;;;;;;;1.45;0.55;;;19.90;73.00;;;;;;5008220;28;20097;-73
2023/06/13 07:00:14;;;;;;;0.98;0.43;;;20.00;71.80;;;;;;5006845;28;20546;-73
2023/06/13 07:02:41;;;;;;;0.30;0.20;;;20.10;72.00;;;;;;5005499;28;20107;-72
2023/06/13 07:05:08;;;;;;;0.75;0.30;;;20.20;73.10;;;;;;4989734;28;20041;-74
2023/06/13 07:07:34;;;;;;;0.25;0.20;;;20.20;72.10;;;;;;5023448;28;20065;-72
2023/06/13 07:10:00;;;;;;;1.85;0.20;;;20.30;71.80;;;;;;5007843;28;20155;-73
2023/06/13 07:12:25;;;;;;;0.68;0.30;;;20.40;71.20;;;;;;5004588;28;20050;-74
2023/06/13 07:14:51;;;;;;;0.77;0.43;;;20.60;71.50;;;;;;5004724;28;20046;-73
2023/06/13 07:17:17;;;;;;;3.22;1.88;;;20.70;69.60;;;;;;4991294;28;20038;-72
2023/06/13 07:19:42;;;;;;;0.35;0.20;;;20.70;68.30;;;;;;5007305;28;20030;-72
2023/06/13 07:22:08;;;;;;;2.17;0.63;;;20.70;66.20;;;;;;5008065;28;20433;-73
2023/06/13 07:24:34;;;;;;;0.10;0.10;;;20.70;66.70;;;;;;5009173;28;20046;-72
2023/06/13 07:27:00;;;;;;;1.10;0.40;;;20.80;68.00;;;;;;5003211;28;20506;-72
2023/06/13 07:29:25;;;;;;;0.10;0.10;;;20.90;66.90;;;;;;5006757;28;20088;-72
2023/06/13 07:31:51;;;;;;;4.57;0.43;;;21.00;64.80;;;;;;5004920;28;20045;-72
2023/06/13 07:34:17;;;;;;;5.40;1.10;;;21.00;64.00;;;;;;5004951;28;20042;-72
2023/06/13 07:36:43;;;;;;;0.03;0.03;;;21.00;67.80;;;;;;5008552;28;20045;-72
2023/06/13 07:39:13;;;;;;;1.30;0.77;;;21.20;64.60;;;;;;5007459;28;20045;-72
2023/06/13 07:41:39;;;;;;;0.30;0.22;;;21.30;61.90;;;;;;5004522;28;20405;-72
2023/06/13 07:44:05;;;;;;;0.20;0.20;;;21.40;63.20;;;;;;5005354;28;20069;-72
2023/06/13 07:46:31;;;;;;;0.50;0.22;;;21.60;63.60;;;;;;4991355;28;20100;-72
2023/06/13 07:48:58;;;;;;;0.43;0.30;;;21.70;61.00;;;;;;5006270;28;20045;-73
2023/06/13 07:51:24;;;;;;;0.17;0.17;;;21.70;61.20;;;;;;5005004;28;20491;-72
2023/06/13 07:53:50;;;;;;;1.65;0.20;;;21.80;59.90;;;;;;4992034;28;20533;-72
2023/06/13 07:56:16;;;;;;;1.00;0.25;;;21.90;61.80;;;;;;5006111;28;20502;-72
2023/06/13 07:58:42;;;;;;;0.05;0.05;;;22.10;60.90;;;;;;5007860;28;20104;-72
2023/06/13 08:01:08;;;;;;;0.77;0.43;;;22.20;62.70;;;;;;5006948;28;20050;-72
2023/06/13 08:03:34;;;;;;;0.20;0.10;;;22.40;59.20;;;;;;5005710;28;20039;-75
2023/06/13 08:06:00;;;;;;;1.00;0.30;;;22.50;59.30;;;;;;5006314;28;20122;-73
2023/06/13 08:08:26;;;;;;;0.93;0.40;;;22.60;57.60;;;;;;5008018;28;20038;-74
2023/06/13 08:10:52;;;;;;;0.82;0.30;;;22.70;58.10;;;;;;5007130;28;20092;-75
2023/06/13 08:13:19;;;;;;;0.22;0.22;;;22.90;57.10;;;;;;5007619;28;20478;-75
2023/06/13 08:15:45;;;;;;;0.10;0.10;;;23.00;57.80;;;;;;5003785;28;20093;-73
2023/06/13 08:18:11;;;;;;;0.73;0.30;;;23.10;56.30;;;;;;4990363;28;20046;-73
2023/06/13 08:20:37;;;;;;;0.20;0.20;;;23.30;57.10;;;;;;5006313;28;20058;-73
2023/06/13 08:23:03;;;;;;;0.35;0.20;;;23.40;55.00;;;;;;5007385;28;20423;-73
2023/06/13 08:25:29;;;;;;;0.00;0.00;;;23.50;55.60;;;;;;5003893;28;20057;-72
2023/06/13 08:27:55;;;;;;;0.43;0.38;;;23.60;54.50;;;;;;5007270;28;20050;-72
2023/06/13 08:30:21;;;;;;;0.13;0.10;;;23.70;55.10;;;;;;5007548;28;20081;-73
2023/06/13 08:32:47;;;;;;;0.35;0.25;;;23.80;55.90;;;;;;5004998;28;20429;-72
2023/06/13 08:35:13;;;;;;;0.13;0.13;;;23.90;54.70;;;;;;4992567;28;20061;-72
2023/06/13 08:37:39;;;;;;;3.53;0.38;;;24.20;56.20;;;;;;5007088;28;20042;-73
2023/06/13 08:40:09;;;;;;;0.30;0.20;;;24.40;53.90;;;;;;5010732;28;20117;-69
2023/06/13 08:42:36;;;;;;;0.20;0.10;;;24.50;52.60;;;;;;4994613;28;20116;-72
2023/06/13 08:45:02;;;;;;;0.08;0.08;;;24.50;51.50;;;;;;5008349;28;20046;-70
2023/06/13 08:47:28;;;;;;;0.08;0.08;;;24.60;51.40;;;;;;5006823;28;20030;-71
2023/06/13 08:49:54;;;;;;;0.30;0.20;;;24.80;50.40;;;;;;5008742;28;20050;-71
2023/06/13 08:52:20;;;;;;;0.47;0.35;;;25.10;51.00;;;;;;4993829;28;20445;-71
2023/06/13 08:54:55;;;;;;;0.00;0.00;;;25.30;50.20;;;;;;5009740;28;20057;-71
2023/06/13 08:57:24;;;;;;;0.43;0.43;;;25.40;49.00;;;;;;5007183;28;20129;-72
2023/06/13 08:59:53;;;;;;;0.90;0.30;;;25.30;47.10;;;;;;5009668;28;20088;-72
2023/06/13 09:02:20;;;;;;;1.65;0.40;;;25.20;47.00;;;;;;5009200;28;20501;-71
2023/06/13 09:04:48;;;;;;;2.67;0.52;;;25.20;47.70;;;;;;5009701;28;20042;-71
2023/06/13 09:07:16;;;;;;;0.10;0.03;;;25.30;48.00;;;;;;4993567;28;20050;-71
2023/06/13 09:09:43;;;;;;;2.65;0.20;;;25.40;47.70;;;;;;5008208;28;20048;-71
2023/06/13 09:12:12;;;;;;;0.25;0.20;;;25.50;48.00;;;;;;5007187;28;20062;-73
2023/06/13 09:14:38;;;;;;;0.43;0.10;;;25.70;48.00;;;;;;5009233;28;20076;-74
2023/06/13 09:17:05;;;;;;;0.10;0.10;;;26.00;48.20;;;;;;4993885;28;20085;-72
2023/06/13 09:19:31;;;;;;;0.17;0.17;;;26.30;47.00;;;;;;5006835;28;20121;-72
2023/06/13 09:21:57;;;;;;;0.70;0.13;;;26.40;44.10;;;;;;5003786;28;20120;-71
2023/06/13 09:24:26;;;;;;;0.10;0.10;;;26.30;43.80;;;;;;5006391;28;20049;-74
2023/06/13 09:26:52;;;;;;;7.57;0.22;;;26.30;44.60;;;;;;5005995;28;20038;-72
2023/06/13 09:29:18;;;;;;;0.30;0.30;;;26.40;42.90;;;;;;4993226;28;20381;-72
2023/06/13 09:31:43;;;;;;;0.43;0.22;;;26.50;44.10;;;;;;5005243;28;20149;-72
2023/06/13 09:34:16;;;;;;;0.20;0.10;;;26.50;43.70;;;;;;5008990;28;20042;-73
2023/06/13 09:36:43;;;;;;;0.00;0.00;;;26.70;44.00;;;;;;5004884;28;20160;-71
2023/06/13 09:39:08;;;;;;;0.68;0.22;;;26.70;43.10;;;;;;5001055;28;20478;-71
2023/06/13 09:41:35;;;;;;;0.57;0.20;;;26.80;42.50;;;;;;4993624;28;20046;-71
2023/06/13 09:44:04;;;;;;;0.22;0.17;;;26.90;43.60;;;;;;5009605;28;20048;-72
2023/06/13 09:46:35;;;;;;;1.38;0.45;;;27.10;42.80;;;;;;5009037;28;20035;-71
2023/06/13 09:49:01;;;;;;;0.10;0.10;;;27.30;41.10;;;;;;5008659;28;20038;-70
2023/06/13 09:51:32;;;;;;;0.13;0.10;;;27.20;40.90;;;;;;5007455;28;20038;-70
2023/06/13 09:54:01;;;;;;;0.10;0.10;;;27.00;41.00;;;;;;5009777;28;20054;-72
2023/06/13 09:56:27;;;;;;;0.80;0.30;;;26.90;41.50;;;;;;5009153;28;20054;-72
2023/06/13 09:58:53;;;;;;;0.25;0.25;;;27.00;41.60;;;;;;4993127;28;20108;-71
2023/06/13 10:01:19;;;;;;;0.30;0.20;;;27.20;40.20;;;;;;5009711;28;20125;-71
2023/06/13 10:03:46;;;;;;;0.98;0.40;;;27.30;41.90;;;;;;5007228;28;20486;-70
2023/06/13 10:06:12;;;;;;;0.10;0.10;;;27.50;41.80;;;;;;5007392;28;20042;-70
2023/06/13 10:08:38;;;;;;;0.40;0.35;;;27.70;41.00;;;;;;5008734;28;20120;-72
2023/06/13 10:11:12;;;;;;;0.20;0.20;;;27.80;39.80;;;;;;5006714;28;20398;-71
2023/06/13 10:13:54;;;;;;;0.20;0.20;;;27.50;38.90;;;;;;4987683;28;20097;-71
2023/06/13 10:16:21;;;;;;;0.68;0.47;;;27.20;39.20;;;;;;5007637;28;20231;-71
2023/06/13 10:18:51;;;;;;;0.30;0.10;;;27.20;39.20;;;;;;5004645;28;20077;-71
2023/06/13 10:21:18;;;;;;;11.80;1.25;;;27.40;39.50;;;;;;5004250;28;20050;-71
2023/06/13 10:23:49;;;;;;;5.82;0.30;;;27.50;38.70;;;;;;5009372;28;20525;-71
2023/06/13 10:26:33;;;;;;;0.15;0.10;;;27.80;38.80;;;;;;5003221;28;20045;-71
2023/06/13 10:29:22;;;;;;;0.10;0.10;;;27.80;37.60;;;;;;5008894;28;20058;-71
2023/06/13 10:32:06;;;;;;;1.35;0.65;;;27.90;38.70;;;;;;5008518;28;20461;-72
2023/06/13 10:34:57;;;;;;;0.32;0.25;;;28.10;38.80;;;;;;5006942;28;20038;-71
2023/06/13 10:37:47;;;;;;;0.38;0.20;;;28.00;38.20;;;;;;5007911;28;20064;-72
2023/06/13 10:40:38;;;;;;;0.20;0.10;;;28.00;39.00;;;;;;5007948;28;20042;-71
2023/06/13 10:43:06;;;;;;;0.28;0.13;;;28.10;37.90;;;;;;5007628;28;20397;-72
2023/06/13 10:45:34;;;;;;;0.20;0.10;;;28.20;37.90;;;;;;5007519;28;20113;-71
2023/06/13 10:48:07;;;;;;;2.13;0.63;;;28.40;38.60;;;;;;5008437;28;20052;-73
2023/06/13 10:50:38;;;;;;;0.50;0.35;;;28.70;39.00;;;;;;5006659;28;20088;-71
2023/06/13 10:53:04;;;;;;;0.40;0.22;;;28.90;38.10;;;;;;5007623;28;20073;-71
2023/06/13 10:55:32;;;;;;;0.22;0.10;;;28.80;37.00;;;;;;4991720;28;20084;-71
2023/06/13 10:57:59;;;;;;;0.65;0.50;;;28.80;37.50;;;;;;5008167;28;20053;-71
2023/06/13 11:00:34;;;;;;;0.98;0.40;;;28.90;37.90;;;;;;5008080;28;20538;-70
2023/06/13 11:03:10;;;;;;;0.00;0.00;;;29.20;36.60;;;;;;5006451;28;20049;-72
2023/06/13 11:05:45;;;;;;;0.50;0.30;;;29.30;37.90;;;;;;4984742;28;20124;-71
2023/06/13 11:08:15;;;;;;;0.15;0.10;;;29.00;36.10;;;;;;5006298;28;20069;-71
2023/06/13 11:10:45;;;;;;;0.80;0.30;;;29.00;37.30;;;;;;5021626;28;20096;-70
2023/06/13 11:13:26;;;;;;;0.30;0.30;;;29.00;36.80;;;;;;5004585;28;20038;-71
2023/06/13 11:15:56;;;;;;;0.28;0.10;;;28.90;35.80;;;;;;5002466;28;20497;-73
2023/06/13 11:18:22;;;;;;;4.15;0.30;;;28.90;35.80;;;;;;5005245;28;20530;-71
2023/06/13 11:20:51;;;;;;;0.57;0.45;;;29.20;37.20;;;;;;5008226;28;20137;-72
2023/06/13 11:23:18;;;;;;;0.63;0.22;;;29.40;37.70;;;;;;5007837;28;20128;-70
2023/06/13 11:25:45;;;;;;;0.63;0.30;;;29.30;34.70;;;;;;5004040;28;20777;-71
2023/06/13 11:28:14;;;;;;;0.25;0.20;;;29.40;37.30;;;;;;5005179;28;20394;-71
2023/06/13 11:30:44;;;;;;;0.17;0.15;;;29.30;34.70;;;;;;4991677;28;20054;-71
2023/06/13 11:33:11;;;;;;;0.00;0.00;;;29.20;35.60;;;;;;5007318;28;20494;-70
2023/06/13 11:35:40;;;;;;;0.30;0.22;;;29.30;36.20;;;;;;5007843;28;20033;-71
2023/06/13 11:38:15;;;;;;;0.00;0.00;;;29.30;35.80;;;;;;5006535;28;20430;-71
2023/06/13 11:40:44;;;;;;;0.47;0.30;;;29.20;35.20;;;;;;4992169;28;20522;-70
2023/06/13 11:43:10;;;;;;;0.20;0.20;;;29.10;35.30;;;;;;5007014;28;20033;-71
2023/06/13 11:45:36;;;;;;;0.20;0.20;;;29.20;36.50;;;;;;5006327;28;20443;-70
2023/06/13 11:48:02;;;;;;;0.38;0.20;;;29.40;35.50;;;;;;5006167;28;20084;-70
2023/06/13 11:50:28;;;;;;;0.85;0.20;;;29.40;36.10;;;;;;5007171;28;20322;-70
2023/06/13 11:53:07;;;;;;;1.02;0.35;;;29.50;37.00;;;;;;5005872;28;20080;-70
2023/06/13 11:55:34;;;;;;;0.80;0.30;;;29.50;37.10;;;;;;5005705;28;20510;-70
2023/06/13 11:58:00;;;;;;;0.32;0.17;;;29.40;35.60;;;;;;5005433;28;20046;-71
2023/06/13 12:00:26;;;;;;;0.55;0.20;;;29.30;37.80;;;;;;5007086;28;20045;-72
2023/06/13 12:02:52;;;;;;;0.25;0.25;;;29.40;36.50;;;;;;5006026;28;20046;-70
2023/06/13 12:05:19;;;;;;;0.17;0.10;;;29.40;36.70;;;;;;5009880;28;20073;-70
2023/06/13 12:07:45;;;;;;;0.03;0.00;;;29.50;35.40;;;;;;5008421;28;20045;-70
2023/06/13 12:10:15;;;;;;;2.80;0.30;;;29.60;38.40;;;;;;5009118;28;20053;-86
2023/06/13 12:12:41;;;;;;;5.78;0.40;;;29.80;35.30;;;;;;4988738;28;20105;-68
2023/06/13 12:15:13;;;;;;;4.05;0.40;;;29.50;35.30;;;;;;5011674;28;20096;-69
2023/06/13 12:17:59;;;;;;;2.65;0.30;;;29.40;36.70;;;;;;5011123;28;20096;-68
2023/06/13 12:20:28;;;;;;;0.20;0.10;;;29.50;36.30;;;;;;5011365;28;20044;-68
2023/06/13 12:23:01;;;;;;;0.28;0.10;;;29.60;36.10;;;;;;5010190;28;20044;-68
2023/06/13 12:25:30;;;;;;;0.30;0.10;;;30.00;37.30;;;;;;5009541;28;20034;-68
2023/06/13 12:28:01;;;;;;;0.63;0.55;;;30.10;34.50;;;;;;4992682;28;20372;-68
2023/06/13 12:30:41;;;;;;;0.30;0.15;;;30.00;34.90;;;;;;5007354;28;20042;-69
2023/06/13 12:33:07;;;;;;;0.15;0.15;;;29.80;34.70;;;;;;5009229;28;20034;-69
2023/06/13 12:35:33;;;;;;;0.77;0.38;;;29.70;36.00;;;;;;5008106;28;20074;-68
2023/06/13 12:38:02;;;;;;;0.75;0.28;;;29.70;36.30;;;;;;5012212;28;20072;-68
2023/06/13 12:40:35;;;;;;;0.40;0.20;;;29.80;34.30;;;;;;5005717;28;20363;-68
2023/06/13 12:43:02;;;;;;;0.20;0.15;;;29.60;34.60;;;;;;5010761;28;20044;-73
2023/06/13 12:45:29;;;;;;;0.10;0.03;;;29.40;36.10;;;;;;5004783;28;20038;-71
2023/06/13 12:47:58;;;;;;;0.28;0.20;;;29.10;36.30;;;;;;5007366;28;20077;-72
2023/06/13 12:50:25;;;;;;;1.35;0.60;;;29.10;35.90;;;;;;5008759;28;20034;-76
2023/06/13 12:53:07;;;;;;;0.22;0.22;;;28.90;35.90;;;;;;5010778;28;20515;-76